Ohshima Kazumaru — JD2908 — position and weather

sailwx.info

Track history (hours):
 
Tides and Currents Weather Stations Pressure Air Temp Water Temp Dewpoint Dewpoint Depression Visibility Wind Speed Wind Dir Waves Ship Positions

Ohshima Kazumaru

Last reported at 2014-Oct-30 12:18 UTC. Time now 2014-Nov-01 00:39 UTC.
Position N 34°07' E 134°47'.

Length 69 m; draft 4 m.

Type: Cargo ship. MMSI: 431000925.

Date/timePositionNaut miles runAvg speedWind from/ knotsBaromVisibWave heightAir tempDewpointWater temp
2014-Oct-30 12:18N 34°07' E 134°47'25510.6
2014-Oct-29 12:19N 35°13' E 139°46'912.4
2014-Oct-29 11:33N 35°22' E 139°42'1110.7
2014-Oct-29 10:33N 35°31' E 139°47'0 0.0
2014-Oct-28 22:24N 35°32' E 139°47'2 1.8
2014-Oct-28 21:31N 35°31' E 139°49'0 0.0
2014-Oct-28 20:33N 35°31' E 139°49'3 2.6
2014-Oct-28 19:31N 35°29' E 139°48'1111.5
2014-Oct-28 18:33N 35°18' E 139°45'  
2014-Oct-25 09:27N 35°17' E 139°45'1010.9
2014-Oct-25 08:33N 35°27' E 139°46'6 0.4
2014-Oct-24 17:07N 35°30' E 139°53'712.4
2014-Oct-24 16:32N 35°25' E 139°47'1111.4
2014-Oct-24 15:33N 35°13' E 139°47'  
2014-Oct-21 08:12N 35°12' E 139°46'811.8
2014-Oct-21 07:33N 35°20' E 139°43'1111.3
2014-Oct-21 06:34N 35°30' E 139°48'  
Track history (hours):
 
Tides and Currents Weather Stations Pressure Air Temp Water Temp Dewpoint Dewpoint Depression Visibility Wind Speed Wind Dir Waves Ship Positions

Ohshima Kazumaru

Last reported at 2014-Oct-30 12:18 UTC. Time now 2014-Nov-01 00:39 UTC.
Position N 34°07' E 134°47'.

Length 69 m; draft 4 m.

Type: Cargo ship. MMSI: 431000925.

Date/timePositionNaut miles runAvg speedWind from/ knotsBaromVisibWave heightAir tempDewpointWater temp
2014-Oct-30 12:18N 34°07' E 134°47'25510.6
2014-Oct-29 12:19N 35°13' E 139°46'912.4
2014-Oct-29 11:33N 35°22' E 139°42'1110.7
2014-Oct-29 10:33N 35°31' E 139°47'0 0.0
2014-Oct-28 22:24N 35°32' E 139°47'2 1.8
2014-Oct-28 21:31N 35°31' E 139°49'0 0.0
2014-Oct-28 20:33N 35°31' E 139°49'3 2.6
2014-Oct-28 19:31N 35°29' E 139°48'1111.5
2014-Oct-28 18:33N 35°18' E 139°45'  
2014-Oct-25 09:27N 35°17' E 139°45'1010.9
2014-Oct-25 08:33N 35°27' E 139°46'6 0.4
2014-Oct-24 17:07N 35°30' E 139°53'712.4
2014-Oct-24 16:32N 35°25' E 139°47'1111.4
2014-Oct-24 15:33N 35°13' E 139°47'  
2014-Oct-21 08:12N 35°12' E 139°46'811.8
2014-Oct-21 07:33N 35°20' E 139°43'1111.3
2014-Oct-21 06:34N 35°30' E 139°48'  

Dump ship's entire track history